Time;durP1;ratioP1;P1;durP2;ratioP2;P2;SDS_P1;SDS_P2;PMS_P1;PMS_P2;Temp;Humidity;BMP_temperature;BMP_pressure;BME280_temperature;BME280_humidity;BME280_pressure;Samples;Min_cycle;Max_cycle;Signal;HPM_P1;HPM_P2
2022/04/27 00:00:05;;;;;;;14.68;11.35;;;;;;;;;;5130496;27;20200;-80
2022/04/27 00:02:32;;;;;;;17.05;13.02;;;;;;;;;;5112029;28;20197;-79
2022/04/27 00:05:00;;;;;;;16.55;12.50;;;;;;;;;;5112031;28;20205;-79
2022/04/27 00:07:28;;;;;;;15.73;13.55;;;;;;;;;;5112143;28;20235;-83
2022/04/27 00:09:55;;;;;;;17.15;12.82;;;;;;;;;;5112582;28;20291;-82
2022/04/27 00:12:22;;;;;;;14.02;12.05;;;;;;;;;;5111778;28;20547;-80
2022/04/27 00:14:49;;;;;;;17.02;14.95;;;;;;;;;;5114098;28;20243;-81
2022/04/27 00:17:17;;;;;;;19.80;14.48;;;;;;;;;;5114272;28;20193;-84
2022/04/27 00:19:44;;;;;;;17.60;13.63;;;;;;;;;;5126493;27;20203;-79
2022/04/27 00:22:13;;;;;;;16.38;14.23;;;;;;;;;;5129902;27;20699;-83
2022/04/27 00:24:41;;;;;;;17.83;14.23;;;;;;;;;;5131964;28;20214;-81
2022/04/27 00:27:08;;;;;;;21.63;14.98;;;;;;;;;;5132044;28;20227;-78
2022/04/27 00:29:35;;;;;;;18.25;15.40;;;;;;;;;;5132683;28;20188;-80
2022/04/27 00:32:03;;;;;;;17.25;14.75;;;;;;;;;;5132833;28;20218;-78
2022/04/27 00:34:30;;;;;;;19.58;14.90;;;;;;;;;;5132274;28;20220;-82
2022/04/27 00:36:57;;;;;;;21.27;14.95;;;;;;;;;;5134643;28;20195;-83
2022/04/27 00:39:27;;;;;;;20.13;15.23;;;;;;;;;;5134380;28;20661;-78
2022/04/27 00:42:02;;;;;;;22.48;15.68;;;;;;;;;;5130490;28;20457;-77
2022/04/27 00:44:29;;;;;;;21.42;15.05;;;;;;;;;;5129907;28;20187;-82
2022/04/27 00:46:57;;;;;;;17.98;15.35;;;;;;;;;;5110154;28;20196;-80
2022/04/27 00:49:24;;;;;;;18.77;14.90;;;;;;;;;;5111454;28;20737;-80
2022/04/27 00:51:52;;;;;;;19.70;15.00;;;;;;;;;;5111454;28;20216;-77
2022/04/27 00:54:22;;;;;;;19.83;15.45;;;;;;;;;;5110999;28;20232;-78
2022/04/27 00:56:51;;;;;;;16.42;14.30;;;;;;;;;;5115096;28;20577;-79
2022/04/27 00:59:18;;;;;;;19.67;15.93;;;;;;;;;;5133121;28;20200;-78
2022/04/27 01:01:46;;;;;;;17.77;15.02;;;;;;;;;;5134082;27;20216;-79
2022/04/27 01:04:13;;;;;;;21.75;16.92;;;;;;;;;;5134340;27;20184;-78
2022/04/27 01:06:40;;;;;;;23.77;15.88;;;;;;;;;;5133708;27;20200;-79
2022/04/27 01:09:08;;;;;;;21.63;16.17;;;;;;;;;;5135246;27;20191;-78
2022/04/27 01:11:36;;;;;;;24.23;18.60;;;;;;;;;;5134471;27;20220;-78
2022/04/27 01:14:04;;;;;;;24.38;17.88;;;;;;;;;;5135833;27;20217;-77
2022/04/27 01:16:31;;;;;;;19.13;15.55;;;;;;;;;;5136460;27;20202;-76
2022/04/27 01:18:59;;;;;;;19.38;15.57;;;;;;;;;;5135405;27;20207;-80
2022/04/27 01:21:27;;;;;;;18.60;15.27;;;;;;;;;;5138036;27;20227;-78
2022/04/27 01:23:55;;;;;;;18.23;15.47;;;;;;;;;;5137924;27;20196;-79
2022/04/27 01:26:22;;;;;;;24.55;17.13;;;;;;;;;;5134170;27;20552;-77
2022/04/27 01:28:49;;;;;;;25.02;16.38;;;;;;;;;;5133019;27;20703;-80
2022/04/27 01:31:17;;;;;;;20.60;16.75;;;;;;;;;;5134644;27;20680;-79
2022/04/27 01:33:44;;;;;;;18.75;14.43;;;;;;;;;;5135277;27;20251;-80
2022/04/27 01:36:13;;;;;;;19.15;15.82;;;;;;;;;;5135626;27;20199;-80
2022/04/27 01:38:42;;;;;;;21.30;15.13;;;;;;;;;;5136095;27;20199;-80
2022/04/27 01:41:09;;;;;;;21.40;14.70;;;;;;;;;;5133595;27;20264;-78
2022/04/27 01:43:37;;;;;;;21.02;15.68;;;;;;;;;;5137327;27;20192;-77
2022/04/27 01:46:06;;;;;;;21.40;16.77;;;;;;;;;;5137461;27;20195;-80
2022/04/27 01:48:33;;;;;;;19.33;15.95;;;;;;;;;;5133016;27;20191;-79
2022/04/27 01:51:01;;;;;;;22.10;16.02;;;;;;;;;;5132814;27;20576;-77
2022/04/27 01:56:10;;;;;;;20.85;15.38;;;;;;;;;;5134496;27;20188;-77
2022/04/27 01:58:37;;;;;;;18.20;15.40;;;;;;;;;;5133884;27;20199;-80
2022/04/27 02:01:05;;;;;;;22.45;16.98;;;;;;;;;;5135600;27;20229;-78
2022/04/27 02:03:32;;;;;;;21.77;15.05;;;;;;;;;;5134383;27;20640;-79
2022/04/27 02:05:59;;;;;;;17.05;14.98;;;;;;;;;;5137193;27;20523;-80
2022/04/27 02:08:26;;;;;;;20.83;14.75;;;;;;;;;;5136974;27;20192;-79
2022/04/27 02:10:54;;;;;;;21.15;15.88;;;;;;;;;;5133406;27;20231;-77
2022/04/27 02:13:23;;;;;;;23.70;15.95;;;;;;;;;;5132010;27;20556;-80
2022/04/27 02:15:50;;;;;;;19.20;15.20;;;;;;;;;;5134251;27;20232;-78
2022/04/27 02:18:19;;;;;;;22.17;15.75;;;;;;;;;;5134535;27;20202;-80
2022/04/27 02:20:46;;;;;;;24.20;17.23;;;;;;;;;;5134605;27;20217;-79
2022/04/27 02:23:13;;;;;;;18.80;16.08;;;;;;;;;;5134997;27;20441;-77
2022/04/27 02:25:41;;;;;;;18.33;14.63;;;;;;;;;;5134077;27;20234;-78
2022/04/27 02:28:08;;;;;;;16.67;14.65;;;;;;;;;;5135769;27;20202;-77
2022/04/27 02:30:37;;;;;;;19.17;15.57;;;;;;;;;;5136651;27;20220;-77
2022/04/27 02:33:04;;;;;;;18.95;15.70;;;;;;;;;;5133277;27;20776;-78
2022/04/27 02:35:31;;;;;;;18.50;14.98;;;;;;;;;;5131890;27;20216;-76
2022/04/27 02:37:58;;;;;;;20.00;17.83;;;;;;;;;;5133434;27;20207;-79
2022/04/27 02:40:26;;;;;;;20.35;15.25;;;;;;;;;;5133997;27;20226;-79
2022/04/27 02:42:53;;;;;;;22.02;16.23;;;;;;;;;;5134325;27;20196;-78
2022/04/27 02:45:20;;;;;;;22.25;17.33;;;;;;;;;;5134856;27;20196;-79
2022/04/27 02:47:49;;;;;;;18.23;16.05;;;;;;;;;;5134068;27;20206;-79
2022/04/27 02:52:57;;;;;;;20.40;17.38;;;;;;;;;;5135892;27;20753;-76
2022/04/27 02:55:24;;;;;;;19.80;16.47;;;;;;;;;;5132612;27;20219;-76
2022/04/27 02:57:51;;;;;;;18.55;15.85;;;;;;;;;;5131508;27;20438;-79
2022/04/27 03:00:19;;;;;;;25.00;19.77;;;;;;;;;;5133116;27;20200;-79
2022/04/27 03:02:46;;;;;;;24.13;18.40;;;;;;;;;;5133596;27;20645;-78
2022/04/27 03:05:14;;;;;;;23.80;18.13;;;;;;;;;;5133676;27;20188;-78
2022/04/27 03:07:42;;;;;;;21.63;18.20;;;;;;;;;;5134480;27;20716;-79
2022/04/27 03:10:10;;;;;;;28.80;18.63;;;;;;;;;;5133212;27;20192;-78
2022/04/27 03:12:37;;;;;;;24.58;17.30;;;;;;;;;;5135922;27;20196;-79
2022/04/27 03:15:05;;;;;;;22.05;18.00;;;;;;;;;;5135498;27;20224;-78
2022/04/27 03:17:32;;;;;;;22.63;18.17;;;;;;;;;;5132504;27;20241;-76
2022/04/27 03:19:59;;;;;;;21.00;15.82;;;;;;;;;;5131095;27;20188;-77
2022/04/27 03:22:28;;;;;;;23.17;17.40;;;;;;;;;;5132469;27;20216;-78
2022/04/27 03:24:55;;;;;;;23.02;16.17;;;;;;;;;;5132502;27;20200;-78
2022/04/27 03:27:22;;;;;;;21.35;17.00;;;;;;;;;;5133292;27;20207;-78
2022/04/27 03:29:49;;;;;;;24.90;19.15;;;;;;;;;;5133776;27;20207;-79
2022/04/27 03:32:16;;;;;;;25.80;18.05;;;;;;;;;;5133041;27;20230;-78
2022/04/27 03:34:44;;;;;;;25.95;20.27;;;;;;;;;;5134707;27;20222;-79
2022/04/27 03:37:11;;;;;;;24.27;17.85;;;;;;;;;;5135239;27;20253;-76
2022/04/27 03:39:39;;;;;;;24.15;17.90;;;;;;;;;;5132171;27;20188;-76
2022/04/27 03:42:06;;;;;;;21.98;16.85;;;;;;;;;;5130247;27;20580;-76
2022/04/27 03:44:34;;;;;;;19.25;15.93;;;;;;;;;;5131609;27;20200;-79
2022/04/27 03:47:01;;;;;;;21.27;15.90;;;;;;;;;;5132270;27;20222;-79
2022/04/27 03:49:28;;;;;;;25.23;17.88;;;;;;;;;;5132862;27;20199;-79
2022/04/27 03:51:58;;;;;;;19.33;16.30;;;;;;;;;;5133035;27;20216;-78
2022/04/27 03:54:25;;;;;;;20.70;17.23;;;;;;;;;;5132563;27;20234;-76
2022/04/27 03:56:53;;;;;;;22.33;16.85;;;;;;;;;;5132440;27;20203;-78
2022/04/27 03:59:21;;;;;;;22.70;17.40;;;;;;;;;;5130140;27;20196;-77
2022/04/27 04:01:48;;;;;;;21.55;16.55;;;;;;;;;;5130901;27;20681;-79
2022/04/27 04:04:15;;;;;;;20.73;17.10;;;;;;;;;;5132720;27;20200;-78
2022/04/27 04:06:42;;;;;;;24.05;17.77;;;;;;;;;;5132681;27;20208;-78
2022/04/27 04:09:09;;;;;;;22.52;17.88;;;;;;;;;;5132727;27;20204;-77
2022/04/27 04:11:37;;;;;;;23.52;18.50;;;;;;;;;;5132986;27;20579;-77
2022/04/27 04:14:05;;;;;;;21.35;17.23;;;;;;;;;;5133068;27;20671;-79
2022/04/27 04:16:32;;;;;;;25.45;18.60;;;;;;;;;;5134889;27;20214;-79
2022/04/27 04:19:00;;;;;;;22.25;18.60;;;;;;;;;;5133343;27;20192;-76
2022/04/27 04:21:27;;;;;;;27.67;19.50;;;;;;;;;;5129869;27;21065;-77
2022/04/27 04:23:54;;;;;;;27.98;18.63;;;;;;;;;;5130618;27;20207;-78
2022/04/27 04:29:02;;;;;;;25.15;17.65;;;;;;;;;;5132051;28;20188;-79
2022/04/27 04:31:31;;;;;;;24.25;19.23;;;;;;;;;;5132691;28;20302;-77
2022/04/27 04:33:59;;;;;;;31.73;20.83;;;;;;;;;;5132772;28;20206;-78
2022/04/27 04:36:26;;;;;;;24.83;18.92;;;;;;;;;;5133312;27;20237;-79
2022/04/27 04:38:54;;;;;;;26.70;18.67;;;;;;;;;;5138159;27;20200;-77
2022/04/27 04:41:21;;;;;;;26.85;19.25;;;;;;;;;;5137306;27;20564;-78
2022/04/27 04:43:48;;;;;;;23.67;18.02;;;;;;;;;;5134052;27;20206;-79
2022/04/27 04:46:15;;;;;;;30.38;21.35;;;;;;;;;;5134695;27;20203;-76
2022/04/27 04:48:44;;;;;;;22.55;19.33;;;;;;;;;;5136411;27;20195;-80
2022/04/27 04:51:11;;;;;;;26.17;19.02;;;;;;;;;;5136102;27;20215;-77
2022/04/27 04:53:38;;;;;;;23.75;17.92;;;;;;;;;;5136881;27;20549;-77
2022/04/27 04:56:05;;;;;;;21.23;18.38;;;;;;;;;;5136804;27;20604;-77
2022/04/27 04:58:32;;;;;;;26.10;20.38;;;;;;;;;;5137007;27;20203;-76
2022/04/27 05:01:01;;;;;;;26.90;18.23;;;;;;;;;;5138177;27;20230;-77
2022/04/27 05:03:28;;;;;;;26.00;19.27;;;;;;;;;;5137098;27;20196;-77
2022/04/27 05:05:57;;;;;;;28.90;19.55;;;;;;;;;;5133499;27;20192;-77
2022/04/27 05:08:24;;;;;;;27.95;19.98;;;;;;;;;;5134492;27;20200;-77
2022/04/27 05:10:51;;;;;;;24.52;18.60;;;;;;;;;;5135826;27;20227;-80
2022/04/27 05:13:18;;;;;;;22.92;18.02;;;;;;;;;;5135943;27;20192;-77
2022/04/27 05:15:46;;;;;;;23.95;18.25;;;;;;;;;;5135806;27;20227;-78
2022/04/27 05:18:13;;;;;;;24.75;16.73;;;;;;;;;;5136554;27;20196;-77
2022/04/27 05:20:40;;;;;;;25.52;18.77;;;;;;;;;;5136424;27;20223;-76
2022/04/27 05:23:11;;;;;;;20.40;16.23;;;;;;;;;;5138409;27;20215;-79
2022/04/27 05:25:38;;;;;;;23.40;18.83;;;;;;;;;;5137606;27;20224;-77
2022/04/27 05:28:06;;;;;;;27.88;19.15;;;;;;;;;;5135709;27;20195;-77
2022/04/27 05:33:14;;;;;;;22.73;17.45;;;;;;;;;;5135381;27;20218;-79
2022/04/27 05:35:41;;;;;;;24.20;17.50;;;;;;;;;;5135333;27;20752;-76
2022/04/27 05:38:10;;;;;;;19.25;15.85;;;;;;;;;;5135709;27;20207;-80
2022/04/27 05:40:39;;;;;;;19.38;17.20;;;;;;;;;;5135856;27;20212;-77
2022/04/27 05:43:07;;;;;;;21.38;16.85;;;;;;;;;;5134767;27;20228;-77
2022/04/27 05:45:35;;;;;;;26.73;18.75;;;;;;;;;;5137455;27;20203;-77
2022/04/27 05:48:02;;;;;;;24.10;18.15;;;;;;;;;;5136281;27;20201;-79
2022/04/27 05:50:29;;;;;;;23.25;18.20;;;;;;;;;;5132708;27;20231;-77
2022/04/27 05:52:58;;;;;;;25.67;19.40;;;;;;;;;;5133307;27;20553;-79
2022/04/27 05:55:27;;;;;;;30.92;18.73;;;;;;;;;;5135228;27;20212;-76
2022/04/27 05:57:54;;;;;;;25.92;18.48;;;;;;;;;;5133733;27;20196;-78
2022/04/27 06:00:21;;;;;;;24.20;19.73;;;;;;;;;;5135114;27;20208;-76
2022/04/27 06:02:49;;;;;;;25.13;20.70;;;;;;;;;;5135636;27;20441;-79
2022/04/27 06:05:16;;;;;;;27.42;19.73;;;;;;;;;;5135574;27;20204;-76
2022/04/27 06:07:43;;;;;;;23.43;20.87;;;;;;;;;;5137289;27;20191;-77
2022/04/27 06:10:11;;;;;;;31.80;21.90;;;;;;;;;;5135886;27;20469;-77
2022/04/27 06:12:46;;;;;;;25.63;21.13;;;;;;;;;;5132287;27;20558;-77
2022/04/27 06:15:14;;;;;;;29.73;23.77;;;;;;;;;;5132623;27;20823;-76
2022/04/27 06:17:42;;;;;;;28.73;22.40;;;;;;;;;;5115196;27;20463;-77
2022/04/27 06:20:10;;;;;;;39.20;24.40;;;;;;;;;;5113416;28;20911;-77
2022/04/27 06:22:38;;;;;;;35.47;25.53;;;;;;;;;;5114024;28;20843;-76
2022/04/27 06:25:05;;;;;;;28.27;24.07;;;;;;;;;;5113965;28;20456;-76
2022/04/27 06:27:32;;;;;;;36.17;26.67;;;;;;;;;;5121406;27;20441;-79
2022/04/27 06:30:01;;;;;;;46.20;28.37;;;;;;;;;;5132058;27;20914;-76
2022/04/27 06:32:30;;;;;;;36.00;25.50;;;;;;;;;;5132921;27;20969;-77
2022/04/27 06:34:59;;;;;;;74.40;36.50;;;;;;;;;;5134098;27;20534;-76
2022/04/27 06:37:26;;;;;;;122.67;57.27;;;;;;;;;;5134048;27;20437;-77
2022/04/27 06:39:53;;;;;;;165.97;68.33;;;;;;;;;;5134335;27;20445;-76
2022/04/27 06:42:21;;;;;;;70.33;47.50;;;;;;;;;;5134576;27;20469;-77
2022/04/27 06:44:48;;;;;;;59.33;44.23;;;;;;;;;;5135265;27;20461;-77
2022/04/27 06:47:17;;;;;;;40.97;30.33;;;;;;;;;;5136360;27;20452;-76
2022/04/27 06:49:44;;;;;;;33.53;29.13;;;;;;;;;;5134936;27;20436;-77
2022/04/27 06:52:11;;;;;;;37.23;31.53;;;;;;;;;;5131234;27;20962;-76
2022/04/27 06:54:38;;;;;;;20.03;17.90;;;;;;;;;;5132526;27;20444;-77
2022/04/27 06:57:06;;;;;;;25.20;22.83;;;;;;;;;;5133783;27;20469;-76
2022/04/27 06:59:33;;;;;;;20.57;16.73;;;;;;;;;;5132923;27;20441;-77
2022/04/27 07:02:00;;;;;;;25.63;21.90;;;;;;;;;;5133642;27;20473;-76
2022/04/27 07:04:29;;;;;;;18.77;16.83;;;;;;;;;;5134182;27;20453;-76
2022/04/27 07:06:57;;;;;;;19.37;17.47;;;;;;;;;;5134743;27;20589;-77
2022/04/27 07:09:24;;;;;;;20.17;15.07;;;;;;;;;;5135963;27;20464;-78
2022/04/27 07:11:52;;;;;;;18.00;16.10;;;;;;;;;;5135354;27;20459;-76
2022/04/27 07:14:19;;;;;;;17.53;15.00;;;;;;;;;;5131170;27;20443;-75
2022/04/27 07:16:47;;;;;;;17.33;13.33;;;;;;;;;;5131410;27;20469;-75
2022/04/27 07:19:14;;;;;;;14.70;13.30;;;;;;;;;;5131642;27;20450;-76
2022/04/27 07:21:43;;;;;;;14.23;12.73;;;;;;;;;;5133365;27;20485;-75
2022/04/27 07:24:10;;;;;;;12.03;9.90;;;;;;;;;;5133355;27;20438;-75
2022/04/27 07:26:37;;;;;;;12.33;11.03;;;;;;;;;;5133497;27;20469;-74
2022/04/27 07:29:05;;;;;;;11.63;10.53;;;;;;;;;;5133615;27;20465;-75
2022/04/27 07:31:33;;;;;;;11.60;10.40;;;;;;;;;;5135228;27;20466;-75
2022/04/27 07:34:00;;;;;;;12.70;9.23;;;;;;;;;;5135345;27;20435;-74
2022/04/27 07:36:27;;;;;;;12.10;10.80;;;;;;;;;;5131006;27;20480;-75
2022/04/27 07:38:56;;;;;;;12.40;10.60;;;;;;;;;;5131069;27;20430;-75
2022/04/27 07:41:23;;;;;;;13.40;11.10;;;;;;;;;;5132375;27;20466;-76
2022/04/27 07:43:50;;;;;;;11.77;10.57;;;;;;;;;;5132749;27;20448;-75
2022/04/27 07:46:17;;;;;;;11.60;10.40;;;;;;;;;;5132854;27;20434;-76
2022/04/27 07:48:44;;;;;;;10.37;9.27;;;;;;;;;;5133440;27;20431;-76
2022/04/27 07:51:12;;;;;;;13.13;9.37;;;;;;;;;;5133016;27;20474;-76
2022/04/27 07:53:39;;;;;;;12.30;9.63;;;;;;;;;;5135290;27;20448;-76
2022/04/27 07:56:08;;;;;;;10.53;9.17;;;;;;;;;;5134906;27;20476;-76
2022/04/27 07:58:35;;;;;;;13.00;9.47;;;;;;;;;;5123820;27;20459;-75
2022/04/27 08:01:03;;;;;;;8.70;7.80;;;;;;;;;;5128073;27;20464;-76
2022/04/27 08:03:30;;;;;;;8.17;7.30;;;;;;;;;;5132205;27;20526;-76
2022/04/27 08:05:57;;;;;;;9.17;8.27;;;;;;;;;;5132660;27;20652;-76
2022/04/27 08:08:25;;;;;;;14.33;10.10;;;;;;;;;;5132863;27;20437;-76
2022/04/27 08:10:52;;;;;;;9.93;8.93;;;;;;;;;;5131681;27;20994;-75
2022/04/27 08:13:20;;;;;;;8.93;8.03;;;;;;;;;;5132294;27;20802;-76
2022/04/27 08:15:48;;;;;;;12.93;7.43;;;;;;;;;;5134827;27;20566;-76
2022/04/27 08:18:15;;;;;;;10.30;7.27;;;;;;;;;;5134788;27;20807;-76
2022/04/27 08:23:28;;;;;;;7.70;7.00;;;;;;;;;;5128154;27;20928;-76
2022/04/27 08:25:55;;;;;;;9.43;7.77;;;;;;;;;;5131734;28;20486;-77
2022/04/27 08:28:24;;;;;;;8.30;7.50;;;;;;;;;;5135024;28;20455;-76
2022/04/27 08:30:51;;;;;;;7.70;6.87;;;;;;;;;;5132472;28;20460;-75
2022/04/27 08:33:20;;;;;;;10.33;7.40;;;;;;;;;;5132788;28;20440;-75
2022/04/27 08:35:47;;;;;;;9.20;6.50;;;;;;;;;;5132264;28;20476;-75
2022/04/27 08:38:15;;;;;;;13.07;7.87;;;;;;;;;;5134471;28;20441;-76
2022/04/27 08:40:42;;;;;;;11.33;7.20;;;;;;;;;;5134194;28;20814;-76
2022/04/27 08:43:10;;;;;;;7.13;6.43;;;;;;;;;;5129177;28;20449;-76
2022/04/27 08:45:40;;;;;;;11.17;7.80;;;;;;;;;;5128553;28;20939;-76
2022/04/27 08:48:08;;;;;;;8.37;7.47;;;;;;;;;;5131693;28;20992;-76
2022/04/27 08:50:36;;;;;;;8.90;7.70;;;;;;;;;;5131929;28;20461;-76
2022/04/27 08:53:03;;;;;;;10.83;7.50;;;;;;;;;;5132029;28;20445;-76
2022/04/27 08:55:31;;;;;;;12.40;6.90;;;;;;;;;;5131198;28;20440;-76
2022/04/27 08:58:07;;;;;;;8.90;6.90;;;;;;;;;;5123498;27;20453;-76
2022/04/27 09:00:34;;;;;;;7.97;7.20;;;;;;;;;;5128150;27;20487;-76
2022/04/27 09:03:16;;;;;;;9.07;7.50;;;;;;;;;;5130000;28;20957;-76
2022/04/27 09:05:50;;;;;;;9.80;7.20;;;;;;;;;;5130743;28;20930;-76
2022/04/27 09:08:17;;;;;;;7.80;7.10;;;;;;;;;;5130675;28;20471;-77
2022/04/27 09:10:44;;;;;;;10.40;6.60;;;;;;;;;;5124559;28;20469;-77
2022/04/27 09:13:12;;;;;;;8.10;6.97;;;;;;;;;;5115777;28;20457;-77
2022/04/27 09:15:39;;;;;;;10.20;6.73;;;;;;;;;;5114893;28;20454;-77
2022/04/27 09:20:50;;;;;;;9.50;6.70;;;;;;;;;;5130229;28;20848;-76
2022/04/27 09:23:21;;;;;;;7.57;6.43;;;;;;;;;;5130066;27;20811;-76
2022/04/27 09:25:49;;;;;;;8.43;5.97;;;;;;;;;;5134148;27;20525;-76
2022/04/27 09:28:16;;;;;;;8.27;7.50;;;;;;;;;;5124364;27;20438;-76
2022/04/27 09:30:44;;;;;;;9.07;7.50;;;;;;;;;;5117443;27;20469;-78
2022/04/27 09:33:12;;;;;;;7.80;7.00;;;;;;;;;;5115026;27;20454;-77
2022/04/27 09:35:39;;;;;;;7.80;7.00;;;;;;;;;;5117937;27;20474;-78
2022/04/27 09:38:15;;;;;;;8.60;6.40;;;;;;;;;;5132581;27;21035;-78
2022/04/27 09:40:44;;;;;;;7.03;6.37;;;;;;;;;;5122508;27;20830;-78
2022/04/27 09:43:12;;;;;;;6.67;5.97;;;;;;;;;;5121655;27;20438;-78
2022/04/27 09:45:41;;;;;;;8.90;6.47;;;;;;;;;;5132220;27;20449;-77
2022/04/27 09:48:11;;;;;;;7.30;6.10;;;;;;;;;;5133539;27;20457;-77
2022/04/27 09:50:47;;;;;;;10.53;7.43;;;;;;;;;;5121138;27;20474;-78
2022/04/27 09:53:16;;;;;;;11.60;8.33;;;;;;;;;;5114345;28;20491;-78
2022/04/27 09:55:46;;;;;;;8.67;7.83;;;;;;;;;;5114268;27;20819;-79
2022/04/27 09:58:14;;;;;;;9.20;8.30;;;;;;;;;;5115273;28;20456;-77
2022/04/27 10:00:43;;;;;;;10.03;7.17;;;;;;;;;;5120406;27;20831;-78
2022/04/27 10:03:11;;;;;;;7.10;6.40;;;;;;;;;;5121404;27;20449;-78
2022/04/27 10:05:38;;;;;;;8.67;7.70;;;;;;;;;;5121668;27;20468;-77
2022/04/27 10:08:06;;;;;;;10.97;8.00;;;;;;;;;;5128089;27;20462;-76
2022/04/27 10:10:35;;;;;;;8.50;7.63;;;;;;;;;;5124828;27;20732;-77
2022/04/27 10:13:03;;;;;;;8.80;7.67;;;;;;;;;;5110477;28;20564;-76
2022/04/27 10:15:31;;;;;;;8.40;7.60;;;;;;;;;;5110186;28;20441;-76
2022/04/27 10:17:59;;;;;;;12.17;8.63;;;;;;;;;;5113956;27;20486;-77
2022/04/27 10:20:27;;;;;;;10.40;8.50;;;;;;;;;;5127467;27;20470;-77
2022/04/27 10:23:14;;;;;;;10.17;7.87;;;;;;;;;;5129445;27;20533;-78
2022/04/27 10:25:43;;;;;;;9.27;8.10;;;;;;;;;;5127347;27;20481;-79
2022/04/27 10:28:18;;;;;;;9.87;8.97;;;;;;;;;;5126651;27;20465;-77
2022/04/27 10:30:45;;;;;;;12.10;8.83;;;;;;;;;;5109894;28;20478;-77
2022/04/27 10:33:12;;;;;;;8.77;7.57;;;;;;;;;;5109654;27;20799;-77
2022/04/27 10:35:40;;;;;;;11.60;8.20;;;;;;;;;;5111009;27;20454;-77
2022/04/27 10:38:07;;;;;;;8.60;7.80;;;;;;;;;;5111008;27;20493;-77
2022/04/27 10:40:35;;;;;;;8.03;7.23;;;;;;;;;;5113595;27;20854;-77
2022/04/27 10:43:05;;;;;;;8.83;7.83;;;;;;;;;;5138409;27;20503;-78
2022/04/27 10:45:32;;;;;;;11.53;8.10;;;;;;;;;;5130640;27;20825;-77
2022/04/27 10:47:59;;;;;;;10.00;8.77;;;;;;;;;;5128107;27;20450;-78
2022/04/27 10:50:33;;;;;;;10.63;8.33;;;;;;;;;;5124832;27;20501;-78
2022/04/27 10:53:15;;;;;;;8.37;7.63;;;;;;;;;;5127331;27;20507;-79
2022/04/27 10:55:45;;;;;;;9.60;8.80;;;;;;;;;;5122455;27;21736;-86
2022/04/27 10:58:15;;;;;;;8.27;7.47;;;;;;;;;;5125068;27;20551;-79
2022/04/27 11:00:57;;;;;;;9.20;7.13;;;;;;;;;;5121538;27;20480;-79
2022/04/27 11:03:24;;;;;;;11.23;9.30;;;;;;;;;;5119808;27;21057;-78
2022/04/27 11:05:52;;;;;;;8.17;7.30;;;;;;;;;;5123134;27;20525;-81
2022/04/27 11:08:25;;;;;;;10.87;9.00;;;;;;;;;;5133021;27;20414;-78
2022/04/27 11:10:53;;;;;;;9.10;8.30;;;;;;;;;;5130848;27;20423;-81
2022/04/27 11:13:25;;;;;;;9.83;8.17;;;;;;;;;;5124945;27;20422;-81
2022/04/27 11:15:53;;;;;;;9.33;8.53;;;;;;;;;;5112510;27;20426;-82
2022/04/27 11:18:20;;;;;;;9.13;8.23;;;;;;;;;;5112524;27;20472;-85
2022/04/27 11:20:47;;;;;;;10.93;8.10;;;;;;;;;;5112947;27;20477;-77
2022/04/27 11:23:21;;;;;;;11.23;8.27;;;;;;;;;;5113593;28;20439;-79
2022/04/27 11:25:51;;;;;;;9.80;7.63;;;;;;;;;;5117370;27;20533;-79
2022/04/27 11:28:19;;;;;;;9.60;8.50;;;;;;;;;;5127376;27;20451;-79
2022/04/27 11:30:47;;;;;;;9.70;8.90;;;;;;;;;;5130425;27;20826;-79
2022/04/27 11:33:18;;;;;;;13.57;9.67;;;;;;;;;;5129169;27;20454;-81
2022/04/27 11:35:47;;;;;;;10.00;9.10;;;;;;;;;;5109075;28;20447;-80
2022/04/27 11:38:17;;;;;;;13.83;9.50;;;;;;;;;;5113062;27;20470;-78
2022/04/27 11:40:45;;;;;;;9.53;8.10;;;;;;;;;;5115237;28;20465;-78
2022/04/27 11:43:13;;;;;;;10.80;9.77;;;;;;;;;;5125659;27;21030;-79
2022/04/27 11:45:40;;;;;;;11.00;9.03;;;;;;;;;;5117197;28;20431;-81
2022/04/27 11:48:10;;;;;;;12.40;9.50;;;;;;;;;;5117499;27;21647;-81
2022/04/27 11:50:41;;;;;;;12.30;9.33;;;;;;;;;;5130804;27;20535;-80
2022/04/27 11:53:11;;;;;;;13.13;10.07;;;;;;;;;;5128038;27;20458;-80
2022/04/27 11:55:38;;;;;;;11.73;9.83;;;;;;;;;;5110980;28;20448;-77
2022/04/27 11:58:07;;;;;;;10.90;9.37;;;;;;;;;;5110843;28;20503;-78
2022/04/27 12:00:35;;;;;;;11.13;9.30;;;;;;;;;;5117030;27;20912;-78
2022/04/27 12:03:04;;;;;;;11.07;9.50;;;;;;;;;;5119436;27;20438;-79
2022/04/27 12:05:34;;;;;;;10.20;9.20;;;;;;;;;;5122384;27;20978;-78
2022/04/27 12:08:03;;;;;;;9.07;8.13;;;;;;;;;;5114263;27;20432;-79
2022/04/27 12:10:31;;;;;;;9.33;8.43;;;;;;;;;;5132715;27;20464;-78
2022/04/27 12:13:00;;;;;;;9.60;8.07;;;;;;;;;;5130048;27;20515;-79
2022/04/27 12:15:28;;;;;;;9.13;7.63;;;;;;;;;;5130748;27;20934;-79
2022/04/27 12:17:56;;;;;;;8.77;7.97;;;;;;;;;;5128733;27;20693;-79
2022/04/27 12:20:25;;;;;;;8.97;8.17;;;;;;;;;;5152938;27;20440;-77
2022/04/27 12:22:54;;;;;;;10.00;9.00;;;;;;;;;;5152360;27;20448;-79
2022/04/27 12:25:21;;;;;;;9.80;8.80;;;;;;;;;;5153738;27;20783;-79
2022/04/27 12:27:50;;;;;;;11.20;10.10;;;;;;;;;;5130584;27;20436;-79
2022/04/27 12:30:20;;;;;;;11.13;9.63;;;;;;;;;;5114121;28;20799;-79
2022/04/27 12:32:48;;;;;;;9.73;8.73;;;;;;;;;;5118953;28;20830;-80
2022/04/27 12:37:57;;;;;;;10.30;9.30;;;;;;;;;;5129816;28;20919;-81
2022/04/27 12:40:26;;;;;;;13.67;9.40;;;;;;;;;;5132055;28;20450;-78
2022/04/27 12:43:01;;;;;;;9.77;8.80;;;;;;;;;;5132207;28;20418;-79
2022/04/27 12:45:29;;;;;;;10.10;8.30;;;;;;;;;;5132519;28;20503;-81
2022/04/27 12:47:56;;;;;;;9.60;8.60;;;;;;;;;;5133201;28;20413;-75
2022/04/27 12:50:24;;;;;;;13.07;9.20;;;;;;;;;;5130869;28;20462;-75
2022/04/27 12:52:51;;;;;;;10.97;9.87;;;;;;;;;;5120038;28;20450;-76
2022/04/27 12:55:21;;;;;;;12.70;9.93;;;;;;;;;;5127856;27;20469;-75
2022/04/27 12:57:49;;;;;;;9.60;8.70;;;;;;;;;;5130652;27;20965;-75
2022/04/27 13:00:17;;;;;;;9.03;8.13;;;;;;;;;;5134621;27;20468;-76
2022/04/27 13:02:45;;;;;;;9.50;8.70;;;;;;;;;;5135054;27;20447;-76
2022/04/27 13:05:12;;;;;;;8.90;8.00;;;;;;;;;;5134351;27;20439;-76
2022/04/27 13:07:40;;;;;;;13.03;10.40;;;;;;;;;;5116375;27;20449;-77
2022/04/27 13:12:51;;;;;;;10.60;9.13;;;;;;;;;;5113996;27;20450;-77
2022/04/27 13:15:18;;;;;;;10.13;8.67;;;;;;;;;;5117421;28;20452;-76
2022/04/27 13:17:46;;;;;;;14.40;10.20;;;;;;;;;;5116617;28;21056;-76
2022/04/27 13:20:13;;;;;;;9.00;8.20;;;;;;;;;;5130442;27;20456;-76
2022/04/27 13:22:41;;;;;;;12.20;9.87;;;;;;;;;;5133174;27;20408;-74
2022/04/27 13:25:09;;;;;;;9.40;8.47;;;;;;;;;;5134522;27;20968;-77
2022/04/27 13:27:37;;;;;;;10.97;9.50;;;;;;;;;;5126291;27;20446;-75
2022/04/27 13:30:06;;;;;;;8.70;7.90;;;;;;;;;;5114797;28;20430;-77
2022/04/27 13:32:33;;;;;;;7.90;7.20;;;;;;;;;;5115962;27;20420;-77
2022/04/27 13:35:00;;;;;;;10.67;8.60;;;;;;;;;;5115214;27;20456;-77
2022/04/27 13:37:27;;;;;;;10.50;9.50;;;;;;;;;;5116562;27;20482;-76
2022/04/27 13:39:56;;;;;;;9.33;8.40;;;;;;;;;;5116482;27;20429;-77
2022/04/27 13:42:24;;;;;;;10.87;9.90;;;;;;;;;;5123761;27;20480;-78
2022/04/27 13:44:52;;;;;;;10.50;9.60;;;;;;;;;;5130169;27;20415;-76
2022/04/27 13:47:22;;;;;;;10.03;8.90;;;;;;;;;;5134067;27;20448;-76
2022/04/27 13:49:50;;;;;;;9.83;8.87;;;;;;;;;;5122934;27;20994;-77
2022/04/27 13:52:17;;;;;;;14.70;8.93;;;;;;;;;;5113985;27;21017;-77
2022/04/27 13:54:44;;;;;;;9.07;8.23;;;;;;;;;;5114739;27;20432;-76
2022/04/27 13:57:11;;;;;;;7.40;6.70;;;;;;;;;;5114667;28;20434;-77
2022/04/27 13:59:39;;;;;;;9.10;8.20;;;;;;;;;;5127743;27;20450;-76
2022/04/27 14:02:08;;;;;;;8.67;7.77;;;;;;;;;;5116270;27;20899;-76
2022/04/27 14:04:36;;;;;;;9.03;7.87;;;;;;;;;;5119088;27;20557;-76
2022/04/27 14:07:03;;;;;;;11.30;10.13;;;;;;;;;;5132401;27;20902;-76
2022/04/27 14:09:30;;;;;;;10.90;9.90;;;;;;;;;;5129413;27;21189;-75
2022/04/27 14:14:39;;;;;;;10.60;9.60;;;;;;;;;;5115604;27;20425;-76
2022/04/27 14:19:49;;;;;;;11.73;9.37;;;;;;;;;;5128209;27;20457;-76
2022/04/27 14:22:16;;;;;;;10.40;9.40;;;;;;;;;;5126569;27;20470;-75
2022/04/27 14:24:43;;;;;;;9.90;9.00;;;;;;;;;;5132144;27;20417;-75
2022/04/27 14:27:11;;;;;;;11.70;10.50;;;;;;;;;;5133010;27;20432;-75
2022/04/27 14:29:39;;;;;;;8.23;7.43;;;;;;;;;;5134280;27;20441;-76
2022/04/27 14:32:07;;;;;;;10.70;9.60;;;;;;;;;;5134618;27;20461;-76
2022/04/27 14:34:34;;;;;;;10.63;9.47;;;;;;;;;;5127593;27;20841;-78
2022/04/27 14:37:03;;;;;;;10.27;9.37;;;;;;;;;;5155598;27;20438;-76
2022/04/27 14:39:30;;;;;;;13.80;9.67;;;;;;;;;;5118154;27;20483;-77
2022/04/27 14:41:58;;;;;;;10.77;9.67;;;;;;;;;;5115716;28;20430;-77
2022/04/27 14:44:25;;;;;;;10.30;9.30;;;;;;;;;;5124356;27;20432;-76
2022/04/27 14:46:52;;;;;;;8.50;7.70;;;;;;;;;;5131537;27;20915;-76
2022/04/27 14:49:20;;;;;;;9.73;7.90;;;;;;;;;;5132139;27;20454;-77
2022/04/27 14:51:47;;;;;;;11.33;8.70;;;;;;;;;;5123240;27;20471;-76
2022/04/27 14:54:16;;;;;;;9.20;8.30;;;;;;;;;;5126938;27;20697;-76
2022/04/27 14:56:43;;;;;;;8.30;7.50;;;;;;;;;;5117492;27;20442;-76